createdAt,value
2023-04-17T00:00:58.057Z,14.40
2023-04-17T00:03:24.482Z,14.80
2023-04-17T00:05:53.868Z,14.55
2023-04-17T00:08:20.432Z,15.13
2023-04-17T00:10:51.202Z,15.13
2023-04-17T00:13:26.859Z,15.38
2023-04-17T00:15:53.315Z,15.43
2023-04-17T00:18:19.734Z,14.75
2023-04-17T00:20:46.053Z,13.60
2023-04-17T00:23:12.613Z,13.93
2023-04-17T00:25:38.989Z,13.82
2023-04-17T00:28:05.632Z,12.48
2023-04-17T00:30:31.956Z,13.10
2023-04-17T00:32:58.380Z,12.27
2023-04-17T00:35:24.748Z,11.95
2023-04-17T00:37:51.110Z,11.60
2023-04-17T00:40:17.553Z,11.55
2023-04-17T00:42:45.466Z,11.23
2023-04-17T00:45:11.925Z,11.23
2023-04-17T00:47:39.169Z,11.77
2023-04-17T00:50:06.295Z,11.35
2023-04-17T00:52:32.692Z,10.13
2023-04-17T00:55:00.275Z,10.70
2023-04-17T00:59:54.221Z,9.25
2023-04-17T01:02:20.811Z,9.95
2023-04-17T01:04:47.228Z,10.05
2023-04-17T01:07:13.606Z,9.13
2023-04-17T01:09:40.111Z,9.15
2023-04-17T01:12:24.088Z,11.18
2023-04-17T01:14:54.320Z,9.43
2023-04-17T01:17:21.820Z,9.73
2023-04-17T01:19:49.390Z,9.68
2023-04-17T01:22:16.497Z,9.43
2023-04-17T01:24:43.166Z,9.40
2023-04-17T01:27:09.509Z,9.18
2023-04-17T01:29:35.924Z,9.40
2023-04-17T01:32:02.335Z,10.43
2023-04-17T01:34:28.664Z,9.88
2023-04-17T01:36:55.032Z,9.57
2023-04-17T01:39:21.658Z,9.82
2023-04-17T01:41:48.091Z,10.80
2023-04-17T01:44:14.512Z,9.75
2023-04-17T01:46:40.999Z,10.00
2023-04-17T01:49:07.437Z,10.15
2023-04-17T01:51:33.860Z,10.00
2023-04-17T01:54:00.220Z,9.13
2023-04-17T01:56:27.141Z,10.02
2023-04-17T01:58:54.110Z,10.40
2023-04-17T02:01:20.600Z,10.43
2023-04-17T02:03:47.258Z,9.95
2023-04-17T02:06:13.656Z,9.82
2023-04-17T02:08:39.976Z,9.82
2023-04-17T02:11:06.539Z,10.13
2023-04-17T02:13:32.983Z,9.55
2023-04-17T02:15:59.423Z,9.02
2023-04-17T02:18:26.479Z,9.88
2023-04-17T02:20:52.865Z,10.02
2023-04-17T02:23:19.338Z,9.77
2023-04-17T02:25:45.777Z,10.60
2023-04-17T02:28:12.258Z,9.73
2023-04-17T02:30:38.602Z,9.82
2023-04-17T02:33:05.232Z,10.63
2023-04-17T02:35:32.062Z,10.43
2023-04-17T02:37:58.464Z,9.65
2023-04-17T02:40:24.860Z,10.77
2023-04-17T02:42:51.173Z,11.40
2023-04-17T02:45:17.563Z,11.13
2023-04-17T02:47:44.001Z,11.20
2023-04-17T02:50:11.077Z,10.10
2023-04-17T02:52:37.458Z,11.10
2023-04-17T02:55:04.343Z,11.60
2023-04-17T02:57:30.720Z,10.52
2023-04-17T02:59:57.111Z,11.93
2023-04-17T03:02:24.101Z,11.60
2023-04-17T03:04:51.777Z,12.50
2023-04-17T03:07:19.857Z,11.35
2023-04-17T03:09:47.558Z,11.27
2023-04-17T03:12:15.015Z,11.35
2023-04-17T03:14:42.371Z,11.63
2023-04-17T03:17:09.851Z,12.55
2023-04-17T03:19:36.207Z,11.75
2023-04-17T03:22:03.524Z,11.77
2023-04-17T03:24:30.332Z,12.48
2023-04-17T03:26:57.498Z,11.57
2023-04-17T03:29:24.085Z,12.70
2023-04-17T03:31:50.647Z,11.65
2023-04-17T03:34:21.692Z,12.27
2023-04-17T03:36:48.296Z,12.40
2023-04-17T03:39:14.909Z,12.80
2023-04-17T03:41:41.420Z,11.75
2023-04-17T03:44:09.088Z,12.05
2023-04-17T03:49:01.961Z,12.20
2023-04-17T03:51:28.531Z,10.82
2023-04-17T03:53:54.894Z,11.65
2023-04-17T03:56:22.043Z,12.13
2023-04-17T03:58:48.567Z,12.45
2023-04-17T04:01:15.554Z,12.23
2023-04-17T04:03:42.196Z,12.93
2023-04-17T04:06:08.799Z,12.52
2023-04-17T04:08:35.126Z,12.18
2023-04-17T04:11:03.069Z,12.60
2023-04-17T04:13:29.428Z,12.60
2023-04-17T04:15:55.770Z,13.15
2023-04-17T04:18:22.170Z,12.35
2023-04-17T04:20:48.562Z,12.65
2023-04-17T04:23:16.617Z,11.70
2023-04-17T04:25:43.577Z,12.88
2023-04-17T04:28:10.593Z,11.98
2023-04-17T04:30:38.612Z,12.70
2023-04-17T04:33:05.790Z,11.73
2023-04-17T04:35:32.413Z,13.15
2023-04-17T04:38:02.362Z,12.55
2023-04-17T04:40:30.648Z,12.85
2023-04-17T04:42:57.143Z,12.65
2023-04-17T04:45:23.613Z,12.98
2023-04-17T04:47:49.959Z,12.75
2023-04-17T04:50:16.876Z,12.48
2023-04-17T04:52:43.274Z,11.85
2023-04-17T04:55:09.695Z,12.10
2023-04-17T04:57:36.348Z,13.05
2023-04-17T05:00:06.310Z,12.60
2023-04-17T05:02:32.739Z,13.18
2023-04-17T05:04:59.279Z,14.27
2023-04-17T05:07:25.913Z,13.55
2023-04-17T05:09:52.276Z,13.65
2023-04-17T05:12:18.653Z,13.45
2023-04-17T05:14:45.255Z,13.02
2023-04-17T05:17:11.776Z,13.07
2023-04-17T05:19:38.122Z,12.48
2023-04-17T05:22:04.602Z,13.50
2023-04-17T05:24:31.080Z,13.23
2023-04-17T05:26:58.128Z,13.00
2023-04-17T05:29:25.250Z,13.95
2023-04-17T05:31:51.725Z,13.15
2023-04-17T05:34:18.167Z,13.07
2023-04-17T05:36:44.471Z,13.90
2023-04-17T05:39:11.034Z,12.60
2023-04-17T05:41:37.478Z,12.75
2023-04-17T05:44:03.805Z,12.60
2023-04-17T05:46:30.165Z,13.98
2023-04-17T05:48:56.667Z,12.95
2023-04-17T05:51:23.183Z,12.43
2023-04-17T05:53:49.527Z,13.73
2023-04-17T05:56:16.216Z,13.07
2023-04-17T05:58:42.796Z,13.75
2023-04-17T06:01:10.200Z,14.27
2023-04-17T06:03:37.726Z,13.50
2023-04-17T06:06:04.314Z,14.60
2023-04-17T06:08:30.748Z,14.23
2023-04-17T06:10:57.206Z,15.55
2023-04-17T06:13:24.673Z,13.65
2023-04-17T06:15:51.463Z,15.25
2023-04-17T06:18:18.056Z,14.10
2023-04-17T06:20:45.504Z,14.88
2023-04-17T06:23:11.987Z,14.25
2023-04-17T06:25:38.324Z,14.98
2023-04-17T06:28:05.045Z,14.40
2023-04-17T06:30:31.414Z,14.15
2023-04-17T06:32:57.818Z,14.48
2023-04-17T06:35:24.332Z,13.95
2023-04-17T06:37:50.774Z,14.73
2023-04-17T06:40:17.273Z,14.95
2023-04-17T06:42:43.603Z,14.90
2023-04-17T06:45:10.414Z,13.93
2023-04-17T06:47:36.906Z,14.30
2023-04-17T06:50:03.546Z,13.95
2023-04-17T06:52:29.879Z,14.63
2023-04-17T06:54:56.357Z,14.65
2023-04-17T06:57:22.789Z,13.90
2023-04-17T06:59:49.133Z,14.13
2023-04-17T07:02:15.682Z,13.75
2023-04-17T07:04:42.374Z,13.95
2023-04-17T07:07:09.068Z,13.93
2023-04-17T07:09:35.446Z,12.45
2023-04-17T07:12:03.554Z,13.60
2023-04-17T07:14:29.926Z,13.68
2023-04-17T07:16:56.236Z,13.20
2023-04-17T07:19:22.629Z,12.63
2023-04-17T07:21:49.013Z,14.55
2023-04-17T07:24:15.509Z,14.25
2023-04-17T07:26:43.187Z,14.30
2023-04-17T07:29:09.657Z,14.25
2023-04-17T07:31:36.420Z,13.70
2023-04-17T07:34:02.852Z,13.15
2023-04-17T07:36:29.828Z,15.05
2023-04-17T07:38:56.217Z,13.50
2023-04-17T07:41:22.749Z,14.23
2023-04-17T07:43:49.343Z,14.35
2023-04-17T07:46:15.897Z,15.07
2023-04-17T07:48:42.296Z,15.02
2023-04-17T07:51:08.720Z,13.30
2023-04-17T07:53:37.120Z,14.88
2023-04-17T07:56:03.739Z,13.40
2023-04-17T07:58:30.065Z,14.18
2023-04-17T08:00:56.469Z,14.30
2023-04-17T08:03:24.264Z,14.30
2023-04-17T08:05:51.997Z,13.60
2023-04-17T08:08:19.869Z,14.25
2023-04-17T08:10:46.544Z,13.80
2023-04-17T08:13:12.998Z,14.43
2023-04-17T08:15:40.583Z,13.52
2023-04-17T08:18:08.012Z,15.32
2023-04-17T08:20:34.393Z,13.90
2023-04-17T08:23:00.890Z,14.48
2023-04-17T08:25:27.765Z,15.40
2023-04-17T08:27:54.230Z,13.70
2023-04-17T08:30:20.714Z,13.85
2023-04-17T08:32:48.594Z,13.85
2023-04-17T08:35:17.074Z,15.20
2023-04-17T08:37:47.167Z,14.32
2023-04-17T08:40:14.631Z,14.63
2023-04-17T08:42:42.109Z,13.52
2023-04-17T08:45:11.466Z,15.32
2023-04-17T08:47:42.823Z,13.82
2023-04-17T08:50:13.304Z,14.38
2023-04-17T08:52:44.669Z,14.32
2023-04-17T08:55:13.985Z,14.68
2023-04-17T08:57:56.356Z,13.60
2023-04-17T09:00:30.932Z,14.98
2023-04-17T09:02:59.072Z,15.18
2023-04-17T09:05:30.460Z,14.57
2023-04-17T09:08:07.869Z,13.52
2023-04-17T09:10:38.657Z,13.43
2023-04-17T09:13:05.425Z,14.75
2023-04-17T09:15:33.541Z,14.15
2023-04-17T09:18:00.106Z,14.27
2023-04-17T09:20:27.497Z,14.73
2023-04-17T09:23:00.204Z,15.27
2023-04-17T09:25:28.054Z,14.52
2023-04-17T09:28:01.465Z,15.07
2023-04-17T09:30:27.870Z,14.68
2023-04-17T09:33:04.896Z,15.27
2023-04-17T09:35:31.509Z,14.95
2023-04-17T09:37:59.441Z,15.13
2023-04-17T09:40:35.921Z,15.20
2023-04-17T09:43:04.500Z,15.10
2023-04-17T09:45:40.116Z,14.20
2023-04-17T09:48:08.865Z,14.13
2023-04-17T09:50:36.624Z,14.50
2023-04-17T09:53:05.371Z,14.57
2023-04-17T09:55:33.290Z,15.50
2023-04-17T09:58:03.411Z,14.20
2023-04-17T10:00:30.292Z,14.98
2023-04-17T10:02:58.895Z,14.73
2023-04-17T10:05:28.748Z,14.63
2023-04-17T10:07:56.103Z,15.50
2023-04-17T10:10:24.509Z,13.90
2023-04-17T10:12:54.174Z,15.40
2023-04-17T10:15:21.944Z,14.20
2023-04-17T10:17:49.796Z,14.80
2023-04-17T10:20:22.911Z,16.48
2023-04-17T10:22:54.573Z,15.23
2023-04-17T10:25:23.782Z,15.73
2023-04-17T10:28:01.313Z,15.88
2023-04-17T10:30:52.272Z,15.93
2023-04-17T10:33:20.652Z,14.90
2023-04-17T10:35:47.870Z,15.07
2023-04-17T10:38:16.118Z,14.55
2023-04-17T10:40:43.811Z,15.27
2023-04-17T10:43:11.069Z,14.65
2023-04-17T10:45:55.516Z,15.43
2023-04-17T10:48:35.007Z,15.05
2023-04-17T10:51:20.507Z,15.38
2023-04-17T10:53:48.290Z,15.23
2023-04-17T10:56:23.424Z,15.48
2023-04-17T10:59:03.194Z,15.30
2023-04-17T11:01:32.133Z,15.52
2023-04-17T11:04:02.009Z,16.00
2023-04-17T11:06:31.485Z,15.77
2023-04-17T11:08:59.566Z,15.93
2023-04-17T11:11:43.018Z,16.25
2023-04-17T11:14:22.407Z,15.23
2023-04-17T11:16:50.831Z,15.70
2023-04-17T11:19:23.100Z,17.00
2023-04-17T11:21:53.331Z,15.30
2023-04-17T11:24:24.133Z,15.60
2023-04-17T11:26:51.079Z,15.75
2023-04-17T11:29:19.847Z,16.08
2023-04-17T11:31:47.535Z,14.57
2023-04-17T11:34:15.586Z,14.63
2023-04-17T11:36:56.070Z,14.55
2023-04-17T11:44:19.984Z,12.88
2023-04-17T11:46:58.514Z,13.40
2023-04-17T11:49:30.096Z,13.00
2023-04-17T11:51:59.620Z,14.30
2023-04-17T11:54:30.582Z,13.85
2023-04-17T11:57:02.409Z,13.23
2023-04-17T11:59:34.305Z,14.10
2023-04-17T12:02:01.892Z,13.23
2023-04-17T12:04:29.940Z,13.73
2023-04-17T12:06:57.983Z,12.63
2023-04-17T12:09:31.067Z,12.93
2023-04-17T12:11:58.366Z,13.50
2023-04-17T12:14:26.440Z,12.50
2023-04-17T12:16:53.164Z,12.20
2023-04-17T12:19:22.436Z,12.95
2023-04-17T12:21:48.821Z,13.48
2023-04-17T12:24:18.023Z,12.70
2023-04-17T12:26:48.616Z,13.38
2023-04-17T12:29:15.792Z,12.75
2023-04-17T12:31:42.687Z,12.40
2023-04-17T12:36:35.960Z,12.10
2023-04-17T12:39:02.532Z,12.75
2023-04-17T12:41:30.061Z,12.93
2023-04-17T12:44:00.001Z,12.93
2023-04-17T12:46:26.393Z,12.70
2023-04-17T12:48:58.335Z,12.43
2023-04-17T12:51:27.844Z,12.40
2023-04-17T12:53:55.466Z,12.45
2023-04-17T12:56:21.953Z,12.23
2023-04-17T12:58:48.356Z,12.38
2023-04-17T13:01:14.732Z,11.52
2023-04-17T13:03:41.560Z,12.82
2023-04-17T13:06:08.269Z,11.95
2023-04-17T13:08:34.594Z,12.60
2023-04-17T13:11:03.592Z,12.07
2023-04-17T13:13:30.265Z,11.52
2023-04-17T13:15:56.714Z,11.43
2023-04-17T13:18:23.058Z,12.10
2023-04-17T13:20:49.513Z,11.65
2023-04-17T13:23:15.849Z,11.80
2023-04-17T13:25:42.348Z,10.70
2023-04-17T13:28:08.780Z,10.80
2023-04-17T13:30:37.054Z,10.32
2023-04-17T13:33:03.678Z,10.82
2023-04-17T13:35:30.170Z,10.57
2023-04-17T13:38:00.768Z,10.50
2023-04-17T13:40:27.274Z,10.75
2023-04-17T13:42:53.654Z,10.60
2023-04-17T13:45:20.112Z,9.77
2023-04-17T13:47:46.699Z,9.45
2023-04-17T13:50:13.157Z,10.80
2023-04-17T13:52:39.549Z,11.05
2023-04-17T13:55:11.198Z,11.38
2023-04-17T13:57:37.965Z,11.50
2023-04-17T14:00:04.843Z,10.48
2023-04-17T14:02:31.440Z,10.70
2023-04-17T14:04:58.069Z,10.82
2023-04-17T14:07:24.550Z,10.18
2023-04-17T14:09:51.100Z,10.07
2023-04-17T14:12:20.737Z,9.85
2023-04-17T14:14:47.290Z,9.60
2023-04-17T14:17:13.719Z,9.60
2023-04-17T14:19:41.142Z,10.32
2023-04-17T14:22:07.569Z,11.25
2023-04-17T14:24:34.123Z,11.27
2023-04-17T14:27:01.683Z,11.00
2023-04-17T14:29:28.333Z,10.73
2023-04-17T14:31:54.970Z,11.05
2023-04-17T14:34:21.527Z,11.30
2023-04-17T14:36:48.640Z,11.32
2023-04-17T14:41:41.881Z,11.13
2023-04-17T14:44:08.426Z,10.55
2023-04-17T14:46:34.929Z,10.38
2023-04-17T14:49:01.797Z,11.40
2023-04-17T14:51:28.445Z,11.63
2023-04-17T14:53:54.997Z,12.15
2023-04-17T14:56:21.541Z,11.93
2023-04-17T14:58:48.432Z,12.20
2023-04-17T15:01:14.792Z,12.27
2023-04-17T15:03:42.551Z,11.80
2023-04-17T15:06:10.296Z,11.27
2023-04-17T15:08:36.666Z,11.85
2023-04-17T15:11:03.083Z,13.43
2023-04-17T15:13:29.494Z,13.10
2023-04-17T15:15:56.001Z,10.60
2023-04-17T15:18:22.519Z,12.00
2023-04-17T15:20:48.936Z,12.43
2023-04-17T15:23:17.432Z,12.82
2023-04-17T15:25:43.813Z,13.95
2023-04-17T15:28:10.338Z,14.35
2023-04-17T15:30:36.840Z,14.10
2023-04-17T15:33:03.542Z,13.45
2023-04-17T15:35:29.949Z,12.40
2023-04-17T15:37:56.344Z,12.57
2023-04-17T15:40:22.685Z,12.20
2023-04-17T15:42:49.061Z,11.82
2023-04-17T15:45:15.431Z,12.05
2023-04-17T15:47:41.791Z,11.45
2023-04-17T15:50:08.690Z,11.40
2023-04-17T15:52:35.053Z,11.30
2023-04-17T15:55:01.485Z,11.05
2023-04-17T15:57:27.874Z,11.68
2023-04-17T15:59:54.257Z,11.45
2023-04-17T16:02:21.073Z,11.70
2023-04-17T16:04:47.759Z,10.93
2023-04-17T16:07:15.467Z,10.50
2023-04-17T16:09:44.217Z,9.57
2023-04-17T16:12:10.619Z,9.07
2023-04-17T16:14:37.619Z,9.15
2023-04-17T16:17:04.514Z,10.45
2023-04-17T16:19:31.152Z,10.43
2023-04-17T16:21:58.639Z,10.57
2023-04-17T16:24:25.828Z,10.20
2023-04-17T16:26:57.470Z,10.45
2023-04-17T16:29:27.757Z,10.98
2023-04-17T16:31:54.813Z,11.38
2023-04-17T16:34:21.243Z,10.43
2023-04-17T16:36:48.501Z,10.02
2023-04-17T16:41:41.855Z,9.75
2023-04-17T16:44:08.245Z,10.52
2023-04-17T16:46:55.218Z,10.10
2023-04-17T16:49:21.752Z,9.35
2023-04-17T16:51:48.149Z,10.02
2023-04-17T16:54:14.652Z,9.68
2023-04-17T16:56:41.896Z,9.57
2023-04-17T16:59:08.470Z,10.05
2023-04-17T17:01:34.912Z,10.30
2023-04-17T17:04:01.467Z,10.43
2023-04-17T17:06:27.901Z,10.98
2023-04-17T17:08:55.214Z,10.55
2023-04-17T17:11:22.020Z,11.10
2023-04-17T17:13:49.448Z,10.48
2023-04-17T17:16:17.368Z,10.73
2023-04-17T17:18:44.439Z,10.55
2023-04-17T17:21:10.886Z,11.30
2023-04-17T17:23:38.039Z,11.40
2023-04-17T17:26:05.048Z,11.07
2023-04-17T17:28:31.450Z,10.90
2023-04-17T17:31:07.465Z,10.65
2023-04-17T17:33:35.132Z,10.35
2023-04-17T17:36:02.903Z,10.55
2023-04-17T17:38:30.512Z,10.25
2023-04-17T17:40:56.899Z,10.52
2023-04-17T17:43:23.440Z,10.43
2023-04-17T17:45:50.131Z,11.20
2023-04-17T17:48:18.064Z,10.35
2023-04-17T17:50:44.826Z,11.20
2023-04-17T17:53:11.747Z,9.73
2023-04-17T17:55:38.573Z,10.75
2023-04-17T17:58:06.681Z,11.32
2023-04-17T18:00:33.919Z,11.05
2023-04-17T18:03:01.603Z,10.23
2023-04-17T18:05:28.157Z,10.70
2023-04-17T18:07:54.690Z,11.32
2023-04-17T18:10:21.035Z,10.90
2023-04-17T18:12:47.349Z,10.73
2023-04-17T18:15:13.721Z,11.05
2023-04-17T18:17:40.135Z,10.73
2023-04-17T18:20:07.367Z,10.68
2023-04-17T18:22:33.861Z,12.02
2023-04-17T18:25:00.212Z,11.45
2023-04-17T18:27:26.635Z,11.30
2023-04-17T18:29:52.995Z,11.75
2023-04-17T18:32:19.430Z,11.48
2023-04-17T18:34:49.128Z,11.40
2023-04-17T18:37:17.875Z,11.73
2023-04-17T18:39:44.516Z,12.77
2023-04-17T18:42:10.965Z,12.48
2023-04-17T18:44:37.348Z,11.80
2023-04-17T18:47:03.858Z,12.38
2023-04-17T18:49:30.361Z,12.07
2023-04-17T18:51:56.778Z,12.98
2023-04-17T18:54:24.113Z,12.25
2023-04-17T18:56:50.528Z,12.93
2023-04-17T18:59:16.902Z,12.45
2023-04-17T19:01:43.276Z,11.85
2023-04-17T19:04:09.654Z,12.35
2023-04-17T19:06:35.981Z,11.70
2023-04-17T19:09:02.418Z,11.70
2023-04-17T19:11:28.983Z,12.88
2023-04-17T19:13:55.413Z,11.52
2023-04-17T19:16:21.864Z,12.43
2023-04-17T19:18:48.634Z,11.48
2023-04-17T19:21:17.928Z,12.68
2023-04-17T19:23:44.363Z,11.57
2023-04-17T19:26:10.953Z,11.20
2023-04-17T19:28:37.315Z,11.15
2023-04-17T19:31:03.706Z,11.60
2023-04-17T19:33:31.771Z,11.20
2023-04-17T19:35:58.308Z,11.73
2023-04-17T19:38:25.916Z,10.90
2023-04-17T19:46:16.085Z,9.73
2023-04-17T19:48:44.742Z,9.68
2023-04-17T19:51:12.585Z,9.40
2023-04-17T19:53:40.365Z,9.25
2023-04-17T19:56:08.569Z,10.32
2023-04-17T19:58:35.877Z,10.07
2023-04-17T20:01:02.875Z,9.90
2023-04-17T20:03:30.611Z,10.15
2023-04-17T20:05:58.049Z,8.93
2023-04-17T20:08:25.261Z,10.52
2023-04-17T20:10:51.661Z,9.45
2023-04-17T20:13:17.966Z,11.05
2023-04-17T20:15:44.284Z,10.88
2023-04-17T20:18:11.404Z,10.05
2023-04-17T20:20:39.030Z,11.23
2023-04-17T20:23:06.043Z,10.38
2023-04-17T20:25:32.541Z,11.38
2023-04-17T20:27:59.184Z,11.10
2023-04-17T20:30:25.640Z,10.25
2023-04-17T20:32:52.158Z,10.43
2023-04-17T20:35:20.857Z,11.38
2023-04-17T20:37:47.376Z,11.68
2023-04-17T20:40:14.217Z,10.38
2023-04-17T20:42:41.991Z,10.90
2023-04-17T20:45:09.690Z,10.70
2023-04-17T20:52:30.896Z,9.68
2023-04-17T20:54:57.433Z,9.70
2023-04-17T20:57:24.027Z,9.70
2023-04-17T20:59:50.529Z,10.05
2023-04-17T21:02:17.202Z,9.65
2023-04-17T21:04:44.195Z,9.57
2023-04-17T21:07:10.589Z,10.35
2023-04-17T21:09:36.951Z,9.70
2023-04-17T21:12:03.447Z,9.65
2023-04-17T21:14:30.416Z,10.68
2023-04-17T21:16:58.520Z,9.70
2023-04-17T21:19:28.043Z,11.00
2023-04-17T21:21:54.957Z,10.60
2023-04-17T21:24:21.845Z,10.77
2023-04-17T21:26:48.237Z,10.18
2023-04-17T21:29:14.787Z,9.75
2023-04-17T21:31:41.982Z,9.50
2023-04-17T21:34:08.416Z,10.50
2023-04-17T21:36:34.736Z,11.00
2023-04-17T21:39:01.148Z,9.95
2023-04-17T21:41:27.494Z,11.10
2023-04-17T21:43:54.425Z,10.38
2023-04-17T21:46:20.845Z,10.20
2023-04-17T21:48:47.311Z,10.15
2023-04-17T21:51:14.087Z,11.25
2023-04-17T21:53:40.493Z,11.40
2023-04-17T21:56:08.238Z,10.68
2023-04-17T22:01:01.045Z,10.48
2023-04-17T22:03:27.618Z,10.77
2023-04-17T22:05:56.239Z,11.15
2023-04-17T22:08:23.181Z,11.10
2023-04-17T22:10:49.832Z,10.90
2023-04-17T22:13:16.209Z,11.35
2023-04-17T22:15:43.975Z,10.80
2023-04-17T22:20:55.191Z,11.82
2023-04-17T22:23:39.984Z,11.20
2023-04-17T22:26:06.304Z,11.57
2023-04-17T22:29:10.609Z,10.90
2023-04-17T22:31:56.026Z,11.75
2023-04-17T22:34:22.460Z,12.48
2023-04-17T22:37:26.331Z,10.90
2023-04-17T22:39:52.663Z,12.35
2023-04-17T22:43:15.547Z,11.77
2023-04-17T22:46:00.460Z,12.15
2023-04-17T22:49:04.414Z,11.95
2023-04-17T22:51:49.491Z,11.70
2023-04-17T22:55:12.647Z,11.55
2023-04-17T22:57:57.569Z,12.07
2023-04-17T23:01:20.420Z,11.60
2023-04-17T23:04:05.482Z,12.10
2023-04-17T23:06:50.822Z,11.90
2023-04-17T23:09:17.279Z,12.00
2023-04-17T23:11:43.636Z,13.20
2023-04-17T23:14:11.321Z,11.77
2023-04-17T23:16:37.939Z,12.20
2023-04-17T23:19:04.721Z,11.73
2023-04-17T23:21:31.275Z,12.07
2023-04-17T23:23:57.642Z,11.98
2023-04-17T23:26:25.356Z,13.32
2023-04-17T23:28:51.667Z,11.55
2023-04-17T23:31:18.030Z,12.15
2023-04-17T23:33:44.398Z,11.85
2023-04-17T23:36:11.317Z,11.57
2023-04-17T23:38:37.896Z,12.10
2023-04-17T23:41:04.248Z,12.25
2023-04-17T23:43:30.606Z,11.63
2023-04-17T23:45:57.670Z,11.50
2023-04-17T23:48:24.109Z,10.30
2023-04-17T23:50:50.770Z,12.25
2023-04-17T23:53:17.206Z,10.32
2023-04-17T23:55:43.601Z,10.95
2023-04-17T23:58:09.941Z,11.55
